Sedalia, Indiana
Current Conditions -  °F | °C
As of 9:15 AM on Saturday 20 Dec 2014 (Local Time) from KFKR Reporting Station
Haze Haze  
Wind Chill: 30°   Ceiling: 2400
Heat Index: 30°   Visibility: 4mi
Dew Point: 30°   Wind: 0mph
Humidity: 100%   Direction: NA
Pressure: 30.3"   Gusts: NA
Location:  40.42°N, 86.51°W
Report Text: KFKR 201415Z AUTO 00000KT 4SM BR BKN024 M01/M01 A3030 RMK AO2 T10131013
Loading
Personal Weather Stations






























Interactive Weather Map New forecast layout! Learn more

10-Day Weather Forecast

Advertisements
Track Severe Weather on mobile